Date,TemperatureHighF,TemperatureAvgF,TemperatureLowF,DewpointHighF,DewpointAvgF,DewpointLowF,HumidityHigh,HumidityAvg,HumidityLow,PressureMaxIn,PressureMinIn,WindSpeedMaxMPH,WindSpeedAvgMPH,GustSpeedMaxMPH,PrecipitationSumIn
2013-1-1,36.8,31.2,19.4,25.1,16.2,5.1,68,54,39,29.83,29.61,16,5,21,0.01
2013-1-2,28.7,20.0,9.7,14.4,6.2,-4.0,64,54,42,30.01,29.81,14,5,22,0.00
2013-1-3,23.2,15.2,6.7,5.9,-0.2,-5.0,69,51,29,30.04,29.90,16,3,18,0.00
2013-1-4,36.3,29.9,18.6,21.6,17.7,5.9,73,60,50,29.91,29.71,13,4,21,0.00
2013-1-5,39.6,33.6,25.8,23.5,19.2,15.0,70,56,40,30.18,29.74,9,3,14,0.00
2013-1-6,41.1,34.3,25.8,29.3,25.2,17.0,87,70,56,30.14,29.85,12,2,19,0.00
2013-1-7,36.9,32.6,26.7,30.5,25.9,20.7,84,76,65,30.33,29.86,10,2,17,0.00
2013-1-8,45.1,38.6,32.7,31.1,26.4,24.3,85,62,45,30.28,30.16,17,5,22,0.00
2013-1-9,43.9,37.5,28.2,35.0,28.9,23.6,87,71,55,30.33,29.89,13,3,22,0.00
2013-1-10,45.4,41.3,35.8,28.6,25.4,22.1,64,53,43,30.45,29.92,19,6,27,0.00
2013-1-11,40.5,37.0,30.1,38.0,29.4,24.5,92,74,59,30.43,30.16,7,1,11,0.07
2013-1-12,46.2,44.0,40.3,45.7,41.9,38.1,99,93,83,30.16,30.05,7,1,10,0.01
2013-1-13,54.8,50.8,46.0,55.0,50.6,45.7,100,100,97,30.07,29.91,17,4,18,0.00
2013-1-14,60.1,52.5,41.2,55.2,45.0,26.1,100,77,50,30.16,29.79,12,4,22,0.00
2013-1-15,41.1,38.3,36.2,29.0,25.9,22.3,71,61,55,30.23,30.14,10,1,11,0.00
2013-1-16,39.3,36.8,32.9,39.0,32.6,-99.9,100,88,55,30.17,29.74,7,-6,11,0.20
2013-1-17,41.6,35.9,28.4,37.0,26.8,6.7,98,71,39,30.02,29.74,11,4,18,0.15
2013-1-18,28.4,21.5,16.9,10.6,-0.9,-8.0,48,37,28,30.36,29.99,17,5,25,0.00
2013-1-19,48.2,38.1,23.5,32.1,20.9,4.3,70,51,33,30.31,29.80,21,8,26,0.00
2013-1-20,53.5,41.9,28.7,33.8,25.0,8.5,72,52,33,29.81,29.42,19,8,27,0.00
2013-1-21,28.5,25.3,21.8,20.8,6.9,-1.0,83,47,31,30.01,29.71,20,3,21,0.00
2013-1-22,27.5,22.0,14.4,21.3,10.4,-2.0,83,62,38,29.98,29.65,14,4,21,0.00
2013-1-23,14.6,10.9,6.9,0.0,-8.9,-16.0,55,39,26,30.04,29.96,13,5,20,0.00
2013-1-24,17.2,10.0,2.6,-5.0,-9.1,-12.0,56,41,28,30.09,29.94,20,7,30,0.00
2013-1-25,21.9,16.0,8.8,2.6,-6.0,-9.0,53,37,24,30.18,29.98,15,4,26,0.00
2013-1-26,23.9,18.7,15.1,12.4,4.1,-6.0,80,55,27,30.11,29.91,18,5,24,0.00
2013-1-27,28.4,21.1,14.9,3.4,-0.4,-5.0,59,40,24,30.37,30.11,14,6,21,0.00
2013-1-28,32.5,25.1,19.4,31.2,9.7,-4.0,95,56,24,30.36,29.94,8,1,13,0.00
2013-1-29,36.8,34.9,32.5,35.0,32.9,30.6,97,92,86,30.11,29.94,13,1,13,0.12
2013-1-30,60.9,51.9,36.2,60.3,50.5,35.0,99,95,87,30.08,29.40,18,8,27,0.16
2013-1-31,61.6,48.0,31.0,60.7,37.7,15.0,99,70,39,29.48,28.88,25,10,34,0.39
2013-2-1,34.4,28.7,23.0,17.0,9.1,3.5,58,44,29,29.97,29.48,17,6,22,0.00
2013-2-2,28.8,24.2,18.1,8.7,4.4,-1.0,55,43,29,30.16,29.97,16,4,19,0.00
2013-2-3,29.0,26.6,24.1,25.9,19.6,9.0,89,75,46,29.97,29.62,11,4,17,0.00
2013-2-4,29.8,25.7,21.6,18.3,10.2,3.8,75,53,35,29.83,29.61,16,6,24,0.00
2013-2-5,27.9,23.8,20.6,23.1,8.7,3.1,83,53,37,29.95,29.84,9,2,16,0.00
2013-2-6,37.6,32.1,25.8,29.8,22.1,7.1,93,69,40,30.20,29.84,13,2,17,0.07
2013-2-7,26.0,22.2,18.8,14.4,1.5,-5.0,61,41,27,30.45,30.19,13,3,21,0.00
2013-2-8,37.5,32.6,26.1,37.2,28.4,14.5,100,85,61,30.42,29.61,18,8,40,0.00
2013-2-9,31.3,23.9,19.4,30.0,21.1,13.3,96,89,77,30.06,29.45,28,12,42,0.00
2013-2-10,34.3,24.2,15.2,17.3,9.4,-3.0,78,55,27,30.30,30.06,13,2,20,0.01
2013-2-11,49.2,37.7,23.3,49.1,31.0,0.8,100,79,32,30.27,29.51,16,3,25,0.32
2013-2-12,44.1,39.7,35.5,43.1,30.6,25.4,100,71,51,29.77,29.50,16,5,20,0.01
2013-2-13,42.5,35.7,30.4,30.5,24.2,20.3,81,64,43,29.78,29.62,12,1,13,0.00
2013-2-14,40.6,36.7,34.3,30.0,23.4,16.5,79,59,39,29.91,29.61,13,3,19,0.00
2013-2-15,48.0,39.9,33.7,35.6,31.6,24.3,92,73,52,29.92,29.83,16,5,20,0.00
2013-2-16,37.9,35.6,31.5,35.0,31.0,19.3,93,84,60,29.87,29.64,20,3,21,0.02
2013-2-17,31.3,23.8,18.1,23.0,14.8,3.0,92,70,48,29.62,29.23,22,9,34,0.01
2013-2-18,31.2,23.3,15.7,7.1,2.9,-2.0,59,42,25,30.04,29.52,21,7,27,0.00
2013-2-19,48.3,35.8,23.5,47.7,22.8,2.0,98,62,35,30.06,29.49,13,4,20,0.43
2013-2-20,48.0,35.1,27.2,47.6,23.8,11.9,99,65,44,29.67,29.43,14,5,20,0.01
2013-2-21,30.0,27.4,25.0,19.5,13.3,8.4,66,55,43,30.07,29.66,17,6,22,0.00
2013-2-22,36.3,32.0,27.6,23.7,21.5,18.0,74,65,53,30.30,30.06,12,3,20,0.00
2013-2-23,39.5,35.9,32.2,37.9,28.8,23.0,94,75,67,30.26,29.87,11,2,14,0.10
2013-2-24,45.8,41.9,38.9,45.2,41.1,37.7,99,97,94,29.86,29.61,17,6,24,0.76
2013-2-25,41.6,37.1,32.9,39.7,32.9,26.4,99,86,66,30.16,29.80,9,2,16,0.14
2013-2-26,42.5,38.3,34.1,37.4,30.7,21.0,93,76,45,30.27,30.11,7,1,13,0.00
2013-2-27,50.2,43.7,38.2,50.1,41.1,28.9,100,91,69,30.11,29.44,19,6,26,1.37
2013-2-28,49.5,42.8,39.1,49.4,39.4,32.6,100,89,66,29.56,29.44,8,1,13,0.00
2013-3-1,40.5,37.4,35.3,36.2,30.8,28.3,90,77,64,29.59,29.45,12,3,16,0.01
2013-3-2,43.3,37.2,33.1,31.6,28.5,26.6,82,71,53,29.59,29.53,7,2,14,0.00
2013-3-3,40.1,36.3,33.1,34.7,30.7,25.4,92,80,68,29.56,29.48,8,2,14,0.00
2013-3-4,39.6,34.4,31.3,28.0,24.0,21.9,78,66,54,29.62,29.47,16,5,21,0.00
2013-3-5,41.6,37.2,32.2,39.1,29.9,22.6,92,75,67,29.99,29.62,12,3,16,0.01
2013-3-6,40.6,38.6,35.8,38.1,32.2,26.6,92,78,65,30.06,29.97,26,7,30,0.11
2013-3-7,43.2,38.8,35.2,42.1,36.0,26.8,99,90,67,30.01,29.91,28,12,35,0.35
2013-3-8,51.1,41.3,38.9,49.2,37.3,26.0,100,88,56,30.06,29.85,25,11,31,0.09
2013-3-9,39.3,36.3,32.4,33.8,27.7,24.0,92,71,58,30.28,30.06,21,5,25,0.00
2013-3-10,39.8,37.2,35.2,34.5,30.2,27.8,90,76,64,30.34,30.24,7,2,12,0.00
2013-3-11,47.1,41.4,36.3,41.0,35.3,31.9,90,79,63,30.26,30.08,15,5,19,0.00
2013-3-12,57.0,49.3,43.8,56.9,47.4,41.0,100,93,87,30.10,29.65,20,8,31,0.33
2013-3-13,57.3,46.1,34.9,57.2,36.6,23.2,100,71,44,29.69,29.60,8,2,13,0.01
2013-3-14,37.0,32.9,23.2,24.4,16.9,5.0,66,52,38,29.72,29.60,18,4,26,0.00
2013-3-15,39.9,29.2,19.4,26.6,10.3,2.7,72,46,23,29.76,29.55,18,5,27,0.00
2013-3-16,37.0,32.7,28.4,26.9,14.3,5.1,74,48,26,29.80,29.56,13,2,21,0.00
2013-3-17,36.0,31.2,25.3,16.4,8.5,-1.0,58,39,24,30.24,29.81,18,4,22,0.00
2013-3-18,33.2,27.5,20.6,22.0,9.4,-1.0,65,47,31,30.38,30.19,12,3,18,0.00
2013-3-19,42.1,37.5,29.8,42.0,36.8,22.0,100,98,66,30.19,29.50,21,7,28,0.75
2013-3-20,37.5,32.6,29.1,33.0,22.4,17.3,97,68,46,29.73,29.59,17,5,24,0.15
2013-3-21,35.9,30.8,26.7,29.4,20.0,14.8,92,65,43,29.73,29.53,8,0,10,0.04
2013-3-22,40.8,34.2,30.1,29.0,21.0,13.8,91,60,35,29.63,29.51,12,2,14,0.00
2013-3-23,42.5,35.5,28.2,23.0,20.4,17.4,70,55,39,29.66,29.53,17,6,22,0.01
2013-3-24,47.7,37.6,31.9,28.2,23.9,19.5,85,59,33,29.72,29.65,11,2,16,0.00
2013-3-25,42.5,37.8,31.6,34.4,31.1,27.3,91,77,64,29.70,29.46,18,4,21,0.00
2013-3-26,48.2,40.3,34.4,33.0,24.2,14.0,91,55,26,29.68,29.45,12,4,19,0.03
2013-3-27,52.2,41.8,29.8,34.4,27.1,21.5,81,57,33,29.78,29.65,13,2,16,0.00
2013-3-28,46.4,41.5,37.9,36.0,32.9,27.2,92,72,51,29.93,29.77,16,2,17,0.03
2013-3-29,55.3,44.7,35.8,37.5,32.5,28.8,79,63,38,29.96,29.89,7,1,11,0.01
2013-3-30,52.5,44.3,37.0,34.2,28.8,19.6,77,56,28,30.02,29.93,9,2,13,0.00
2013-3-31,54.4,45.1,33.2,37.5,25.2,14.8,79,47,26,30.04,29.72,13,4,19,0.02
2013-4-1,56.5,46.2,35.8,45.7,37.6,12.4,100,75,35,29.71,29.42,14,5,22,0.27
2013-4-2,39.2,34.6,29.1,16.3,11.7,6.0,52,39,27,29.84,29.69,19,6,26,0.00
2013-4-3,46.0,37.2,30.4,17.3,12.4,6.8,53,37,21,30.04,29.82,17,6,25,0.00
2013-4-4,52.6,40.8,31.2,27.1,17.5,7.1,57,41,17,30.19,29.95,18,5,24,0.00
2013-4-5,53.6,44.5,37.9,34.1,27.6,22.7,69,53,31,29.95,29.55,13,6,21,0.00
2013-4-6,44.5,36.8,31.3,25.9,11.8,2.6,65,37,19,30.26,29.79,18,5,27,0.00
2013-4-7,50.8,42.5,32.2,38.9,30.0,22.8,82,63,37,30.26,29.91,20,6,29,0.00
2013-4-8,59.6,49.6,43.5,42.0,37.7,32.0,90,66,38,30.04,29.86,12,4,19,0.00
2013-4-9,59.2,48.2,43.2,47.0,41.3,35.0,93,78,57,30.02,29.79,13,3,20,0.05
2013-4-10,56.0,47.4,44.1,44.8,42.4,39.7,96,84,61,29.94,29.80,7,2,11,0.29
2013-4-11,47.6,44.9,42.5,47.3,38.6,29.5,100,80,56,30.07,29.77,10,1,16,0.09
2013-4-12,42.8,38.9,36.5,39.7,33.0,25.8,98,80,60,30.12,29.72,19,4,19,0.50
2013-4-13,49.1,40.4,36.6,40.0,35.7,32.0,98,84,58,29.85,29.67,16,4,22,0.03
2013-4-14,51.7,45.4,39.1,39.2,34.5,29.0,94,68,43,30.12,29.84,8,1,16,0.00
2013-4-15,49.8,43.3,37.0,37.6,33.4,30.0,82,69,47,30.32,30.13,13,3,17,0.00
2013-4-16,58.6,49.5,41.1,47.2,39.8,35.0,90,71,49,30.34,29.97,20,8,28,0.00
2013-4-17,63.2,54.9,45.4,50.6,34.6,23.9,81,50,23,30.26,29.96,14,2,17,0.00
2013-4-18,52.5,48.0,40.2,40.9,32.9,25.2,82,57,38,30.37,30.09,17,5,24,0.00
2013-4-19,74.0,60.9,48.6,62.0,55.1,40.8,100,83,55,30.09,29.60,22,8,29,0.00
2013-4-20,63.5,53.1,45.1,61.5,41.7,24.4,97,69,39,30.10,29.53,19,4,26,0.32
2013-4-21,49.2,41.3,34.9,28.8,21.8,14.5,78,47,27,30.61,30.12,12,3,17,0.00
2013-4-22,48.6,41.5,34.4,34.6,30.9,27.4,89,67,45,30.71,30.54,12,3,19,0.00
2013-4-23,44.6,41.6,39.3,44.3,38.5,29.0,99,90,66,30.53,30.05,14,5,21,0.16
2013-4-24,61.3,50.8,44.6,50.3,45.3,43.0,99,83,57,30.04,29.72,17,7,25,0.05
2013-4-25,62.4,53.7,45.1,51.6,37.7,25.7,93,59,25,30.19,29.74,19,3,22,0.03
2013-4-26,51.0,46.8,42.8,40.4,36.8,33.2,91,69,52,30.36,30.19,10,2,13,0.00
2013-4-27,59.8,50.7,41.5,48.8,33.9,22.2,100,59,26,30.35,30.23,10,2,12,0.00
2013-4-28,63.1,53.0,43.3,40.8,34.3,25.7,72,51,26,30.28,30.17,14,3,18,0.00
2013-4-29,62.6,54.5,46.8,44.6,35.9,19.4,86,53,24,30.20,30.13,12,5,19,0.00
2013-4-30,64.7,54.6,47.4,35.4,25.5,8.6,63,37,12,30.30,30.18,9,2,14,0.00
2013-5-1,63.4,53.3,42.3,43.9,35.3,23.3,87,54,23,30.41,30.30,11,2,16,0.00
2013-5-2,72.3,53.4,45.2,46.1,40.5,28.9,90,66,21,30.42,30.31,12,2,18,0.00
2013-5-3,51.0,46.8,41.9,41.6,39.9,38.2,92,77,66,30.46,30.31,13,3,16,0.00
2013-5-4,51.9,46.1,39.1,43.2,39.0,34.8,94,77,56,30.31,30.25,10,2,13,0.00
2013-5-5,54.5,46.7,39.1,43.0,39.2,34.6,97,77,48,30.27,30.20,9,2,12,0.00
2013-5-6,57.2,48.8,40.3,49.0,44.3,39.5,99,85,61,30.22,30.09,10,2,13,0.01
2013-5-7,68.6,60.0,49.1,56.0,50.2,45.9,92,72,45,30.11,30.03,10,4,17,0.00
2013-5-8,68.9,60.3,54.4,60.2,55.8,53.2,99,86,66,30.15,30.00,13,3,19,0.00
2013-5-9,64.8,58.4,55.1,63.4,57.3,53.9,100,97,70,29.99,29.83,9,1,13,0.97
2013-5-10,73.0,61.2,55.7,66.1,56.7,52.3,100,87,53,29.89,29.82,11,2,16,0.01
2013-5-11,70.8,62.1,56.7,60.3,56.8,51.9,98,83,64,29.84,29.62,17,6,22,0.03
2013-5-12,68.8,60.9,51.0,64.2,54.0,31.3,100,81,42,29.71,29.49,9,2,18,0.08
2013-5-13,59.2,50.9,42.8,33.3,30.0,24.5,64,46,27,29.95,29.72,11,2,14,0.00
2013-5-14,59.2,50.7,44.6,35.6,32.0,24.0,68,50,28,29.97,29.88,8,1,13,0.00
2013-5-15,61.8,51.9,38.3,51.5,37.4,22.2,90,61,24,29.99,29.60,12,3,20,0.06
2013-5-16,77.7,64.5,49.2,51.8,41.9,31.5,96,52,19,29.73,29.54,13,2,19,0.00
2013-5-17,64.3,56.2,51.3,45.3,41.6,38.2,77,59,39,30.13,29.72,10,1,12,0.00
2013-5-18,66.4,55.3,44.6,50.9,44.7,35.0,95,70,33,30.24,30.14,11,2,17,0.00
2013-5-19,58.1,53.4,51.0,54.2,49.6,47.5,97,88,71,30.29,30.18,7,1,12,0.04
2013-5-20,77.6,64.7,55.0,64.9,59.3,54.4,100,85,55,30.17,29.84,8,2,14,0.07
2013-5-21,61.8,56.2,51.3,61.3,55.0,50.2,100,96,84,29.97,29.84,14,2,16,0.00
2013-5-22,56.9,54.1,51.7,55.9,53.0,51.0,100,96,83,30.00,29.80,14,1,18,0.21
2013-5-23,76.5,62.6,53.8,68.3,60.0,53.7,100,92,70,29.87,29.75,12,3,21,0.03
2013-5-24,67.4,62.6,53.2,67.0,61.8,53.1,100,97,85,29.75,29.58,12,3,16,0.57
2013-5-25,54.2,51.4,42.8,54.1,51.1,38.6,100,99,85,29.74,29.60,16,4,22,0.49
2013-5-26,57.8,48.6,40.9,43.0,40.0,37.9,96,75,51,29.99,29.60,16,4,20,0.08
2013-5-27,70.4,56.8,42.3,43.7,38.7,31.1,87,55,27,30.10,29.99,9,1,13,0.00
2013-5-28,68.4,57.5,44.8,49.7,41.7,30.7,94,60,25,30.18,30.09,8,2,14,0.00
2013-5-29,66.4,59.8,56.0,62.2,57.8,48.5,100,94,74,30.12,29.92,12,1,17,0.37
2013-5-30,87.4,73.8,60.5,69.7,63.3,59.1,100,74,42,30.00,29.90,6,0,12,0.01
2013-5-31,92.3,79.4,65.8,66.3,63.5,60.2,93,61,36,30.00,29.84,9,1,13,0.00
2013-6-1,91.0,80.6,70.8,65.0,62.6,59.5,76,56,36,29.88,29.76,13,2,16,0.00
2013-6-2,86.1,74.7,67.1,65.9,63.5,61.1,88,70,46,29.79,29.64,15,3,29,0.00
2013-6-3,72.8,66.6,59.2,67.6,62.7,48.8,99,88,61,29.77,29.67,10,2,16,0.30
2013-6-4,68.1,60.7,52.8,50.4,45.7,42.9,82,59,42,30.01,29.73,8,1,14,0.00
2013-6-5,68.4,60.1,51.3,49.8,46.0,38.0,87,61,33,30.11,30.01,8,2,13,0.00
2013-6-6,70.3,60.6,53.5,53.8,50.3,45.8,87,70,43,30.12,30.04,10,2,13,0.00
2013-6-7,56.9,55.1,53.6,56.0,53.9,50.6,100,96,80,30.05,29.76,10,2,13,1.75
2013-6-8,75.6,62.9,55.6,63.3,58.3,55.5,100,86,60,29.91,29.53,11,2,19,0.62
2013-6-9,78.6,66.3,57.0,61.9,56.7,51.2,100,74,39,30.08,29.91,5,0,8,0.00
2013-6-10,66.6,60.9,56.0,57.7,55.6,53.5,99,83,66,30.15,29.97,6,0,8,0.23
2013-6-11,59.6,56.4,53.9,60.0,55.8,52.1,100,98,92,29.97,29.50,8,2,17,1.03
2013-6-12,67.8,60.3,55.6,60.1,55.9,52.7,100,86,64,29.73,29.48,10,2,18,0.03
2013-6-13,66.6,58.4,53.1,57.0,53.5,49.5,100,85,56,29.74,29.63,7,1,11,0.34
2013-6-14,70.8,59.0,52.5,56.8,53.4,48.7,99,83,53,29.68,29.58,10,1,17,0.74
2013-6-15,77.6,65.4,55.3,55.5,49.2,39.0,93,61,27,29.85,29.69,6,1,10,0.00
2013-6-16,76.8,66.1,55.0,61.0,52.5,46.9,82,63,36,29.86,29.63,10,1,14,0.00
2013-6-17,84.5,68.5,59.9,61.5,59.0,54.2,99,75,38,29.82,29.68,10,1,16,0.08
2013-6-18,68.9,61.3,57.2,62.2,58.0,53.0,99,90,61,29.88,29.81,9,0,13,0.08
2013-6-19,71.1,62.0,55.7,58.0,51.0,40.2,99,70,35,30.06,29.84,8,1,16,0.10
2013-6-20,75.4,64.1,51.9,57.1,51.9,44.5,98,67,35,30.19,30.06,7,2,14,0.00
2013-6-21,81.6,69.9,60.2,61.8,57.8,52.7,83,67,44,30.17,30.11,7,1,11,0.00
2013-6-22,83.0,72.3,63.7,63.3,59.0,54.8,83,65,43,30.14,30.03,10,2,14,0.00
2013-6-23,87.2,75.1,64.5,69.4,62.5,55.6,78,65,53,30.07,29.89,10,3,17,0.00
2013-6-24,93.8,79.1,68.1,69.6,67.4,63.9,99,71,39,29.92,29.78,13,1,22,1.67
2013-6-25,90.7,78.3,68.3,70.4,67.5,64.0,98,73,44,29.82,29.63,12,1,18,0.01
2013-6-26,79.9,71.2,63.4,70.3,67.3,63.0,100,89,61,29.79,29.63,6,0,10,0.47
2013-6-27,67.4,63.9,61.6,66.3,63.4,61.5,100,98,88,29.81,29.71,6,0,10,0.08
2013-6-28,77.7,69.8,61.8,74.8,67.9,61.7,100,94,80,29.71,29.43,13,4,19,0.40
2013-6-29,79.0,72.5,68.8,72.2,68.1,63.4,100,87,65,29.64,29.45,11,4,16,0.01
2013-6-30,80.9,73.6,68.1,71.3,68.5,65.2,97,85,69,29.86,29.64,10,3,16,0.00
2013-7-1,79.9,72.6,69.3,73.6,71.6,68.9,100,97,78,30.01,29.86,10,2,13,0.86
2013-7-2,78.3,67.4,58.7,75.0,66.3,58.0,100,97,76,30.15,30.01,8,2,11,0.02
2013-7-3,88.8,73.1,59.8,73.5,66.9,59.7,100,83,56,30.14,30.04,5,0,10,0.00
2013-7-4,90.3,81.9,73.0,74.3,72.1,70.7,95,74,55,30.12,30.00,5,1,11,0.00
2013-7-5,91.8,83.5,74.9,74.4,72.5,70.8,91,71,55,30.08,29.94,7,1,11,0.00
2013-7-6,89.3,81.6,72.8,73.0,70.3,62.7,89,70,53,29.98,29.89,5,0,8,0.00
2013-7-7,90.5,78.5,69.8,72.1,65.8,61.1,88,67,39,29.93,29.83,5,0,10,0.04
2013-7-8,79.8,71.1,64.2,74.5,67.6,61.9,99,89,79,29.99,29.83,10,1,13,0.14
2013-7-9,70.3,65.8,64.2,64.7,63.1,61.3,100,92,76,30.05,29.98,6,0,10,0.01
2013-7-10,81.6,71.8,64.3,73.1,69.1,63.5,100,92,71,30.03,29.72,11,2,16,0.00
2013-7-11,81.8,75.1,67.3,74.0,71.0,66.7,98,88,67,29.86,29.69,6,0,11,0.02
2013-7-12,71.8,67.2,64.8,67.7,61.1,58.0,100,81,62,30.13,29.86,10,2,16,0.00
2013-7-13,76.7,68.7,63.7,66.7,63.6,60.3,98,85,65,30.25,30.13,5,0,8,0.00
2013-7-14,87.0,76.2,67.1,74.4,70.1,66.5,100,83,56,30.23,30.13,5,0,8,0.00
2013-7-15,91.2,78.8,70.6,72.4,68.9,64.0,99,74,45,30.13,30.01,6,1,10,0.00
2013-7-16,88.4,77.7,69.3,69.4,66.2,62.8,85,69,46,30.09,30.02,6,1,9,0.00
2013-7-17,87.6,78.7,70.3,71.5,68.3,62.4,90,71,57,30.10,29.89,8,2,16,0.00
2013-7-18,83.8,77.7,72.1,73.7,69.6,66.0,96,77,58,29.95,29.87,9,2,12,0.00
2013-7-19,95.4,84.2,70.3,76.4,71.4,66.4,98,69,39,29.88,29.62,8,1,17,0.00
2013-7-20,91.8,82.5,72.7,76.3,72.1,64.6,87,72,50,29.72,29.56,5,0,11,0.00
2013-7-21,76.8,71.9,67.6,66.1,63.3,56.7,94,75,52,29.92,29.72,10,1,11,0.00
2013-7-22,76.7,70.6,67.8,69.4,66.7,63.9,99,88,66,29.96,29.83,5,0,10,0.00
2013-7-23,78.8,71.1,68.1,76.9,70.4,67.0,100,98,85,29.83,29.47,10,1,12,0.13
2013-7-24,86.3,75.9,67.1,76.8,68.1,56.4,100,79,52,29.88,29.51,8,1,14,0.00
2013-7-25,67.1,61.5,59.5,61.0,55.2,49.7,97,81,65,30.04,29.88,12,2,16,0.20
2013-7-26,69.1,64.9,61.6,66.5,63.4,60.0,100,95,84,30.00,29.84,16,2,20,0.73
2013-7-27,81.2,70.8,61.0,67.0,63.1,60.3,100,79,53,29.98,29.91,7,1,11,0.00
2013-7-28,68.4,66.5,65.0,67.6,65.7,63.9,100,97,90,29.96,29.92,7,1,13,0.09
2013-7-29,77.6,70.1,65.2,72.0,67.8,65.0,100,93,71,29.98,29.90,9,1,11,0.00
2013-7-30,81.6,70.1,63.1,67.0,62.3,58.1,100,78,50,30.02,29.95,6,1,8,0.00
2013-7-31,77.4,68.9,60.5,64.0,59.7,54.1,98,75,47,30.06,29.97,7,1,8,0.00
2013-8-1,79.0,71.2,65.2,65.6,62.8,59.2,96,76,53,29.98,29.81,10,2,16,0.00
2013-8-2,83.6,70.4,63.9,69.5,63.7,58.7,100,81,52,29.82,29.70,6,0,12,0.42
2013-8-3,78.6,70.6,65.0,64.4,61.7,59.0,92,75,54,29.79,29.69,11,1,12,0.00
2013-8-4,79.9,68.7,58.9,61.2,58.0,52.9,93,71,44,29.79,29.69,6,0,17,0.00
2013-8-5,75.3,66.4,58.3,54.0,49.9,44.6,82,57,36,29.96,29.79,12,2,17,0.00
2013-8-6,76.1,64.5,51.4,60.7,50.0,40.1,91,63,28,30.08,29.96,6,1,8,0.00
2013-8-7,76.7,67.9,57.6,61.8,56.3,49.3,96,69,40,30.12,30.04,11,2,17,0.00
2013-8-8,79.6,71.7,65.0,69.0,64.3,55.5,94,78,68,30.06,29.93,10,3,14,0.01
2013-8-9,74.0,71.4,68.8,73.9,70.5,68.3,100,97,91,29.95,29.66,14,3,22,1.41
2013-8-10,80.9,72.1,60.7,73.2,62.0,51.6,100,74,40,29.93,29.71,6,0,12,0.02
2013-8-11,79.6,66.9,54.5,61.1,55.1,50.2,95,69,37,30.00,29.93,6,1,10,0.00
2013-8-12,81.1,69.9,59.6,63.0,57.3,49.3,92,67,35,29.95,29.84,5,1,7,0.00
2013-8-13,72.8,68.1,65.3,67.1,64.2,60.6,100,88,79,29.84,29.62,7,1,8,0.01
2013-8-14,74.4,67.0,61.0,65.2,55.9,49.9,100,70,44,29.86,29.58,10,2,16,0.01
2013-8-15,77.6,65.1,53.8,56.2,52.2,47.0,91,66,35,30.03,29.87,5,0,8,0.00
2013-8-16,79.9,66.8,55.9,58.6,54.2,48.7,87,66,35,30.10,30.02,5,1,8,0.00
2013-8-17,75.1,65.7,57.3,61.2,56.5,53.9,93,74,49,30.21,30.11,6,1,10,0.00
2013-8-18,79.2,68.1,58.6,63.2,59.4,55.9,97,75,49,30.20,30.00,5,1,10,0.00
2013-8-19,81.2,70.4,60.2,61.9,59.7,57.1,95,71,49,30.00,29.86,5,0,7,0.00
2013-8-20,84.5,72.3,62.0,64.6,61.7,59.2,92,71,48,30.00,29.89,6,1,7,0.00
2013-8-21,85.7,74.1,63.5,65.7,62.9,60.6,92,70,47,30.07,29.93,6,1,10,0.00
2013-8-22,87.8,75.3,67.8,69.4,65.1,61.6,93,72,44,29.94,29.73,12,2,13,0.00
2013-8-23,76.3,69.1,60.4,68.5,59.5,52.5,95,73,46,30.04,29.73,9,1,12,0.00
2013-8-24,73.9,64.3,58.0,55.3,48.1,36.6,84,59,27,30.24,30.05,8,2,11,0.00
2013-8-25,77.4,66.4,54.4,56.7,51.0,41.2,90,60,34,30.28,30.10,8,1,10,0.00
2013-8-26,82.6,71.6,63.7,65.7,60.6,54.0,88,69,53,30.10,29.79,7,1,11,0.02
2013-8-27,77.7,70.9,63.4,66.9,65.0,62.8,99,83,64,29.83,29.76,6,1,10,0.00
2013-8-28,78.8,67.7,61.8,70.2,63.9,61.5,100,89,61,29.92,29.79,6,1,8,0.00
2013-8-29,65.0,63.3,61.3,64.9,60.8,56.7,100,92,81,30.01,29.89,13,2,16,0.01
2013-8-30,81.6,69.9,61.6,66.9,62.1,58.6,92,78,56,29.95,29.74,6,1,10,0.00
2013-8-31,78.1,71.8,68.3,73.5,69.8,66.3,99,94,80,29.77,29.71,8,2,12,0.13
2013-9-1,79.2,72.7,70.6,71.7,69.9,66.9,99,91,74,29.81,29.71,8,2,12,0.04
2013-9-2,79.8,72.5,69.6,73.8,71.1,69.0,100,96,77,29.81,29.65,7,2,14,0.16
2013-9-3,79.6,72.9,65.5,72.0,68.5,58.1,100,87,70,29.72,29.61,10,1,14,0.00
2013-9-4,80.5,69.1,58.6,60.9,57.1,51.7,95,68,38,29.83,29.71,5,1,11,0.00
2013-9-5,66.3,62.0,52.9,60.7,53.9,45.0,95,76,59,30.06,29.77,8,1,13,0.08
2013-9-6,67.8,58.9,49.5,51.4,43.9,33.1,83,60,32,30.17,30.00,7,1,13,0.00
2013-9-7,80.3,65.5,53.1,55.7,48.5,43.8,76,56,31,30.00,29.77,6,1,10,0.00
2013-9-8,73.2,64.8,56.7,59.4,51.3,41.7,85,63,44,30.00,29.66,12,2,20,0.00
2013-9-9,68.1,58.1,46.4,51.0,45.3,38.9,91,64,35,30.16,30.01,8,2,13,0.00
2013-9-10,72.5,65.8,58.3,68.3,60.5,49.9,97,84,72,30.08,29.95,13,3,18,0.06
2013-9-11,94.5,79.4,67.9,74.2,70.1,65.3,99,76,46,29.99,29.85,12,3,14,0.01
2013-9-12,86.3,75.1,65.0,71.6,68.1,63.8,97,80,59,29.89,29.61,16,3,21,0.42
2013-9-13,77.0,66.6,59.8,70.2,64.4,55.9,100,93,66,29.67,29.49,7,1,12,0.25
2013-9-14,69.3,61.3,56.6,55.9,53.7,50.7,90,77,59,29.97,29.67,6,1,12,0.00
2013-9-15,70.9,59.9,51.6,55.6,50.8,47.1,97,74,45,30.09,29.97,6,1,10,0.00
2013-9-16,67.4,58.7,50.5,55.0,49.7,36.3,86,73,54,30.17,29.93,13,1,20,0.00
2013-9-17,59.9,52.2,46.7,44.1,39.1,34.6,87,62,42,30.35,30.17,14,3,21,0.00
2013-9-18,74.6,57.7,43.9,50.0,43.9,36.6,94,65,27,30.25,30.06,5,1,7,0.00
2013-9-19,70.8,59.8,49.4,56.2,50.3,45.6,91,72,47,30.06,29.96,5,1,8,0.00
2013-9-20,73.7,61.7,51.6,59.0,54.7,50.2,99,79,53,30.03,29.93,7,1,7,0.00
2013-9-21,73.5,64.0,55.6,64.0,59.4,55.3,100,86,64,29.95,29.67,11,3,18,0.01
2013-9-22,70.9,64.2,54.8,64.7,57.4,43.6,100,80,52,29.73,29.54,11,2,18,0.55
2013-9-23,61.5,54.0,48.6,44.5,41.6,39.3,74,63,50,29.91,29.73,14,3,19,0.00
2013-9-24,63.4,53.0,42.8,46.9,42.6,39.4,91,69,46,29.90,29.75,8,2,12,0.00
2013-9-25,61.3,53.4,44.3,50.5,46.2,41.6,98,78,50,29.91,29.80,7,1,10,0.00
2013-9-26,62.6,56.9,51.3,53.3,48.2,43.9,95,74,56,30.05,29.91,7,1,12,0.00
2013-9-27,63.2,57.9,51.7,52.6,50.1,47.1,89,76,58,30.17,30.05,8,2,13,0.00
2013-9-28,64.3,56.9,50.8,55.6,53.0,48.4,100,88,70,30.26,30.17,7,1,11,0.00
2013-9-29,64.2,55.2,48.9,58.0,50.8,42.9,100,87,48,30.20,30.05,5,0,8,0.02
2013-9-30,63.7,54.4,48.9,54.6,51.9,48.6,100,92,62,30.05,29.90,5,0,10,0.01
2013-10-1,72.5,59.8,49.8,56.6,51.9,48.6,100,78,44,29.89,29.78,6,1,8,0.01
2013-10-2,77.9,65.8,54.7,59.4,56.5,52.0,97,74,51,29.85,29.73,4,0,11,0.00
2013-10-3,77.7,63.9,54.2,57.6,51.2,42.6,92,66,29,30.01,29.86,3,0,7,0.00
2013-10-4,62.1,58.0,52.3,58.1,54.8,50.0,100,89,72,30.01,29.95,3,0,6,0.05
2013-10-5,63.4,59.2,56.5,61.5,57.1,54.9,100,93,79,30.06,29.98,6,0,7,0.00
2013-10-6,58.7,56.5,54.8,58.0,55.0,49.9,100,95,80,30.17,30.05,7,1,13,0.20
2013-10-7,72.3,65.6,57.6,68.2,64.0,57.5,100,95,83,30.07,29.75,18,4,24,0.18
2013-10-8,64.0,58.4,53.5,60.0,47.1,42.0,96,67,47,30.29,29.81,11,2,17,0.01
2013-10-9,60.4,53.7,46.5,46.2,42.7,38.7,97,68,50,30.41,30.29,11,1,13,0.00
2013-10-10,60.4,52.8,46.0,53.6,50.3,45.3,100,92,70,30.29,30.12,4,0,8,0.00
2013-10-11,62.0,56.0,51.9,56.7,52.0,45.6,100,88,58,30.11,30.04,10,1,14,0.01
2013-10-12,58.3,55.5,50.4,56.4,52.2,46.6,100,89,79,30.33,30.08,11,2,14,0.00
2013-10-13,59.8,52.0,41.9,47.7,44.8,39.7,94,77,56,30.38,30.31,9,1,12,0.00
2013-10-14,61.0,50.5,40.8,51.2,44.7,33.4,100,83,36,30.34,30.19,6,1,10,0.01
2013-10-15,61.0,56.3,50.4,55.0,52.3,48.5,96,87,73,30.19,30.12,6,0,7,0.00
2013-10-16,58.1,54.9,49.8,56.0,53.9,49.6,100,97,88,30.12,29.85,7,0,10,0.00
2013-10-17,73.0,61.8,54.7,60.6,57.3,54.6,100,87,57,29.84,29.64,8,1,13,0.00
2013-10-18,67.9,61.0,52.3,62.0,51.5,40.3,100,74,45,29.82,29.53,11,2,16,0.06
2013-10-19,65.2,55.3,45.8,49.5,42.8,38.0,77,64,42,29.91,29.69,7,1,12,0.00
2013-10-20,62.1,55.0,46.7,54.4,42.1,34.6,96,65,37,29.93,29.61,11,2,18,0.01
2013-10-21,65.6,52.8,41.5,47.8,40.4,34.6,80,64,38,30.03,29.92,8,1,11,0.00
2013-10-22,65.2,56.8,50.7,52.1,47.8,37.6,90,73,57,29.92,29.63,12,2,14,0.00
2013-10-23,52.8,47.8,39.1,37.8,34.0,29.9,83,60,43,29.71,29.51,8,0,12,0.00
2013-10-24,53.8,47.0,42.1,36.5,30.1,23.6,74,53,37,29.79,29.53,12,2,17,0.00
2013-10-25,49.1,43.7,36.0,34.8,30.0,25.1,87,60,42,30.06,29.79,11,2,16,0.00
2013-10-26,54.5,45.5,35.3,35.5,29.3,21.7,78,55,28,30.06,29.80,11,3,19,0.00
2013-10-27,55.9,48.2,39.9,42.1,34.6,26.9,93,62,41,29.97,29.74,12,2,17,0.08
2013-10-28,59.0,46.2,37.6,37.0,31.1,25.1,76,57,36,30.26,29.97,12,2,20,0.00
2013-10-29,44.6,40.2,33.4,30.9,28.5,25.4,85,64,48,30.36,30.26,7,1,11,0.00
2013-10-30,47.1,39.8,34.9,38.0,34.7,31.3,93,83,66,30.28,30.12,3,0,6,0.04
2013-10-31,61.2,51.6,38.5,59.1,49.2,35.5,99,92,80,30.16,29.74,14,3,25,0.12
2013-11-1,68.9,63.7,59.0,61.5,56.6,51.6,98,79,59,29.72,29.34,19,7,38,0.02
2013-11-2,66.3,56.0,49.4,52.6,44.1,38.2,91,66,40,29.65,29.52,5,0,13,0.05
2013-11-3,50.8,42.6,36.9,48.1,32.3,21.1,92,68,44,30.32,29.63,13,4,22,0.13
2013-11-4,39.2,35.9,31.5,27.0,21.1,17.1,82,55,41,30.62,30.33,14,3,19,0.00
2013-11-5,48.2,39.9,30.3,34.8,29.9,25.8,89,68,48,30.63,30.44,11,1,11,0.00
2013-11-6,57.5,50.9,43.2,51.3,42.1,34.5,92,73,53,30.44,29.95,16,4,17,0.00
2013-11-7,66.4,54.3,42.6,58.6,50.1,33.5,98,86,65,29.95,29.58,17,4,24,0.26
2013-11-8,47.1,40.6,36.5,35.4,28.8,23.4,80,63,49,29.99,29.72,11,3,20,0.01
2013-11-9,44.6,39.7,33.7,29.4,23.4,20.5,66,52,39,30.11,29.98,11,2,18,0.00
2013-11-10,53.3,47.1,42.3,43.3,36.9,29.0,95,68,54,29.97,29.65,12,2,16,0.10
2013-11-11,50.2,45.4,40.2,33.2,27.8,22.2,68,51,33,30.00,29.73,13,3,21,0.00
2013-11-12,48.8,36.2,29.4,38.9,23.2,14.9,87,60,47,30.09,29.80,17,5,22,0.04
2013-11-13,35.5,30.4,26.1,16.7,13.4,8.8,63,50,37,30.19,30.08,12,4,18,0.00
2013-11-14,48.9,40.3,30.1,25.0,19.1,14.1,53,43,32,30.07,29.94,10,4,17,0.00
2013-11-15,56.3,47.9,39.1,35.5,21.7,12.7,65,37,18,30.11,30.02,11,4,13,0.00
2013-11-16,52.2,46.0,40.9,40.4,32.1,22.0,92,60,31,30.24,30.09,4,1,7,0.00
2013-11-17,54.7,47.3,37.6,54.6,45.1,37.0,100,93,67,30.24,29.81,13,3,19,0.08
2013-11-18,64.0,58.2,48.6,61.7,48.2,32.8,100,73,41,29.79,29.44,13,5,24,0.16
2013-11-19,48.6,39.6,32.7,33.0,21.9,16.6,57,49,38,30.17,29.57,21,6,25,0.00
2013-11-20,40.2,35.6,30.9,22.3,15.7,10.4,56,45,30,30.54,30.17,17,4,19,0.00
2013-11-21,46.7,38.1,27.5,27.4,22.5,18.1,76,55,34,30.55,30.30,8,1,10,0.00
2013-11-22,45.2,42.6,41.2,44.5,39.3,27.8,100,89,58,30.29,29.73,8,1,10,0.20
2013-11-23,46.8,40.1,31.5,46.6,27.7,10.0,100,63,39,29.81,29.67,20,5,22,0.01
2013-11-24,31.5,25.1,21.1,18.6,6.5,-1.0,75,45,32,30.05,29.67,25,8,31,0.00
2013-11-25,32.5,25.4,18.6,17.2,1.2,-7.0,53,35,18,30.26,30.05,15,4,24,0.00
2013-11-26,44.3,35.4,29.7,43.7,23.2,13.4,98,63,43,30.25,29.99,13,2,18,0.10
2013-11-27,61.3,51.4,38.8,61.2,50.7,30.8,100,97,73,29.98,29.13,25,7,35,1.53
2013-11-28,38.9,32.3,25.6,31.6,16.1,3.9,75,52,32,30.34,29.32,18,6,24,0.00
2013-11-29,30.7,26.6,24.2,13.0,8.0,-1.0,60,46,27,30.65,30.34,11,3,17,0.00
2013-11-30,36.0,29.6,25.3,26.1,16.6,10.1,77,58,45,30.70,30.36,11,2,14,0.00
2013-12-1,44.6,42.0,36.2,44.1,37.1,26.3,100,84,67,30.36,29.93,12,4,21,0.49
2013-12-2,40.5,38.9,37.5,40.4,38.3,36.4,100,98,94,29.93,29.85,11,2,20,0.00
2013-12-3,44.1,39.2,36.6,40.4,36.1,30.1,100,89,72,29.85,29.76,11,2,13,0.00
2013-12-4,42.5,36.5,32.7,31.2,27.0,24.4,83,69,53,30.12,29.85,11,2,14,0.00
2013-12-5,52.8,44.7,33.1,52.7,41.0,25.0,100,87,66,30.15,29.85,13,3,17,0.01
2013-12-6,55.7,47.6,34.1,55.4,45.5,32.2,100,93,73,30.07,29.77,11,2,17,0.28
2013-12-7,39.1,34.5,30.3,33.6,24.7,13.2,96,69,46,30.36,30.00,17,4,19,0.16
2013-12-8,30.7,28.9,27.5,17.6,14.3,11.6,63,54,48,30.51,30.36,11,2,16,0.00
2013-12-9,43.3,36.2,29.8,43.2,33.9,16.4,100,92,57,30.41,29.78,16,2,18,0.42
2013-12-10,36.2,32.8,26.3,35.4,28.0,12.2,100,83,54,29.88,29.68,20,4,20,0.01
2013-12-11,32.8,26.8,23.3,17.9,15.0,12.1,73,61,43,30.11,29.90,13,5,18,0.00
2013-12-12,25.4,21.4,16.7,18.0,5.7,-5.0,75,52,31,30.17,29.98,14,4,21,0.00
2013-12-13,29.0,22.0,15.7,17.3,8.5,0.0,70,56,43,30.30,29.89,14,5,20,0.00
2013-12-14,29.0,18.3,11.2,28.2,9.8,-2.0,97,70,46,30.52,30.13,12,4,20,0.00
2013-12-15,40.1,29.4,23.0,40.0,28.0,19.2,100,95,75,30.12,29.31,21,5,27,0.63
2013-12-16,28.8,25.0,19.1,20.7,11.7,4.4,78,58,37,30.11,29.64,13,4,18,0.01
2013-12-17,31.0,20.1,11.2,30.5,13.1,1.9,98,75,50,30.20,29.86,20,2,25,0.00
2013-12-18,31.5,27.2,23.0,26.3,22.1,18.0,96,82,64,29.97,29.77,16,4,21,0.11
2013-12-19,41.2,33.9,26.9,24.4,21.5,19.1,74,61,46,30.03,29.87,12,3,19,0.11
2013-12-20,49.8,43.1,36.5,37.7,31.5,23.8,77,64,56,30.04,29.82,18,4,18,0.01
2013-12-21,53.9,48.5,42.9,46.7,41.3,33.0,86,76,66,29.87,29.77,13,5,19,0.00
2013-12-22,52.0,40.8,35.0,49.6,40.1,34.9,100,98,85,29.96,29.70,14,3,18,0.09
2013-12-23,39.6,36.8,34.9,39.5,36.7,34.8,100,100,100,30.02,29.89,9,2,14,0.33
2013-12-24,39.5,32.9,26.7,39.4,22.2,11.3,100,66,46,30.11,29.97,12,3,17,0.00
2013-12-25,26.6,19.0,12.3,12.9,5.0,0.0,67,54,46,30.47,30.11,18,3,25,0.00
2013-12-26,38.3,29.6,18.6,35.7,23.9,6.8,96,80,58,30.43,29.99,12,2,20,0.06
2013-12-27,32.5,28.6,23.8,22.0,19.6,17.1,88,69,57,30.18,30.10,10,3,14,0.01
2013-12-28,45.8,36.9,29.3,26.8,23.8,19.4,74,60,44,30.12,29.89,13,4,19,0.00
2013-12-29,42.9,39.9,36.9,42.2,32.4,24.9,100,76,57,29.94,29.31,18,3,28,1.04
2013-12-30,42.5,33.7,18.6,36.6,24.2,3.9,99,70,42,30.09,29.42,13,4,22,0.00
2013-12-31,23.5,18.0,13.8,13.9,3.9,-1.0,67,54,37,30.09,29.96,10,2,14,0.00
2014-1-1,26.3,22.2,18.9,11.0,6.3,3.9,61,50,38,30.31,30.08,11,3,18,0.00
2014-1-2,22.4,19.8,12.6,20.4,16.0,6.8,92,86,51,30.30,29.77,24,6,33,0.00